Time;durP1;ratioP1;P1;durP2;ratioP2;P2;SDS_P1;SDS_P2;PMS_P1;PMS_P2;Temp;Humidity;BMP_temperature;BMP_pressure;BME280_temperature;BME280_humidity;BME280_pressure;Samples;Min_cycle;Max_cycle;Signal;HPM_P1;HPM_P2
2022/08/14 00:01:56;;;;;;;2.78;2.35;;;21.00;99.90;;;;;;5004189;28;20025;-79
2022/08/14 00:04:24;;;;;;;3.17;2.42;;;21.00;99.90;;;;;;5005642;28;20068;-78
2022/08/14 00:06:50;;;;;;;3.78;2.53;;;21.00;99.90;;;;;;5004922;28;20045;-78
2022/08/14 00:09:15;;;;;;;4.47;3.33;;;20.90;99.90;;;;;;5002280;28;20052;-77
2022/08/14 00:11:41;;;;;;;3.15;2.63;;;20.90;99.90;;;;;;5003657;28;20437;-78
2022/08/14 00:14:06;;;;;;;5.70;3.42;;;20.90;99.90;;;;;;5005960;28;20125;-76
2022/08/14 00:16:32;;;;;;;3.35;2.42;;;20.90;99.90;;;;;;4989141;28;20091;-78
2022/08/14 00:18:58;;;;;;;2.97;2.50;;;20.80;99.90;;;;;;5007614;28;21664;-79
2022/08/14 00:21:24;;;;;;;3.80;2.53;;;20.80;99.90;;;;;;5009835;28;20037;-78
2022/08/14 00:23:50;;;;;;;3.25;2.78;;;20.80;99.90;;;;;;4998699;28;20102;-77
2022/08/14 00:26:16;;;;;;;4.10;2.90;;;20.70;99.90;;;;;;5011413;28;20025;-77
2022/08/14 00:28:41;;;;;;;4.30;2.80;;;20.70;99.90;;;;;;5011239;28;20504;-77
2022/08/14 00:31:07;;;;;;;3.60;2.60;;;20.70;99.90;;;;;;5009160;28;20033;-78
2022/08/14 00:33:33;;;;;;;4.43;2.70;;;20.60;99.90;;;;;;5011438;28;20414;-78
2022/08/14 00:35:58;;;;;;;3.13;2.72;;;20.60;99.90;;;;;;5015852;28;20485;-77
2022/08/14 00:38:24;;;;;;;3.70;2.78;;;20.60;99.90;;;;;;4995174;28;20062;-78
2022/08/14 00:40:49;;;;;;;3.22;2.88;;;20.50;99.90;;;;;;5006002;28;20052;-79
2022/08/14 00:43:15;;;;;;;3.60;2.80;;;20.50;99.90;;;;;;4994418;28;20116;-78
2022/08/14 00:45:41;;;;;;;3.53;2.72;;;20.40;99.90;;;;;;4992955;28;20050;-78
2022/08/14 00:48:09;;;;;;;3.00;2.30;;;20.40;99.90;;;;;;5006953;28;21367;-77
2022/08/14 00:50:34;;;;;;;3.95;2.80;;;20.40;99.90;;;;;;4999353;28;20494;-78
2022/08/14 00:53:00;;;;;;;3.10;2.60;;;20.40;99.90;;;;;;5004675;28;20030;-78
2022/08/14 00:55:27;;;;;;;3.15;2.70;;;20.30;99.90;;;;;;4983296;28;20112;-77
2022/08/14 01:00:38;;;;;;;3.45;2.88;;;20.30;99.90;;;;;;5004035;28;20104;-82
2022/08/14 01:03:06;;;;;;;3.45;2.30;;;20.30;99.90;;;;;;5003500;28;20477;-78
2022/08/14 01:05:33;;;;;;;4.22;2.70;;;20.20;99.90;;;;;;5009304;28;20021;-77
2022/08/14 01:07:59;;;;;;;3.70;2.67;;;20.20;99.90;;;;;;5004047;28;20366;-77
2022/08/14 01:10:49;;;;;;;3.78;2.80;;;20.20;99.90;;;;;;5001575;28;20030;-77
2022/08/14 01:13:15;;;;;;;3.38;2.72;;;20.10;99.90;;;;;;5002977;28;20104;-77
2022/08/14 01:15:45;;;;;;;3.95;2.97;;;20.10;99.90;;;;;;4996839;28;20042;-78
2022/08/14 01:21:03;;;;;;;3.38;2.65;;;20.20;99.90;;;;;;5005835;28;20041;-78
2022/08/14 01:23:29;;;;;;;3.55;2.83;;;20.20;99.90;;;;;;5005080;28;20511;-78
2022/08/14 01:25:55;;;;;;;2.83;2.28;;;20.20;99.90;;;;;;4994874;28;20034;-79
2022/08/14 01:28:21;;;;;;;5.57;3.30;;;20.20;99.90;;;;;;5008778;28;20030;-78
2022/08/14 01:30:48;;;;;;;3.85;2.65;;;20.30;99.90;;;;;;5001771;28;20041;-79
2022/08/14 01:33:15;;;;;;;3.47;2.53;;;20.30;99.90;;;;;;4998469;28;20036;-78
2022/08/14 01:35:44;;;;;;;3.92;2.75;;;20.40;99.90;;;;;;5006096;28;20021;-78
2022/08/14 01:38:13;;;;;;;3.10;2.53;;;20.40;99.90;;;;;;5004069;28;20794;-78
2022/08/14 01:40:39;;;;;;;3.17;2.53;;;20.40;99.90;;;;;;4999491;28;20524;-79
2022/08/14 01:43:13;;;;;;;5.07;3.10;;;20.50;99.90;;;;;;4998363;28;20156;-78
2022/08/14 01:45:39;;;;;;;3.13;2.38;;;20.50;99.90;;;;;;5003604;28;20030;-78
2022/08/14 01:48:05;;;;;;;4.05;2.78;;;20.50;99.90;;;;;;4999292;28;20034;-78
2022/08/14 01:50:31;;;;;;;3.65;2.75;;;20.60;99.90;;;;;;5001407;28;20384;-78
2022/08/14 01:52:56;;;;;;;3.97;2.50;;;20.60;99.90;;;;;;5001446;28;20034;-79
2022/08/14 01:55:29;;;;;;;4.35;2.70;;;20.60;99.90;;;;;;5006596;28;20066;-78
2022/08/14 01:57:54;;;;;;;4.00;2.28;;;20.60;99.90;;;;;;5000413;28;20044;-78
2022/08/14 02:00:20;;;;;;;3.30;2.20;;;20.70;99.90;;;;;;5007987;28;20508;-78
2022/08/14 02:02:45;;;;;;;2.60;2.35;;;20.60;99.90;;;;;;5003955;28;20029;-79
2022/08/14 02:05:12;;;;;;;5.25;3.20;;;20.60;99.90;;;;;;5013413;28;20036;-79
2022/08/14 02:07:38;;;;;;;4.63;3.08;;;20.70;99.90;;;;;;5008242;28;20079;-79
2022/08/14 02:10:05;;;;;;;3.83;2.90;;;20.70;99.90;;;;;;5002416;28;20026;-79
2022/08/14 02:12:31;;;;;;;2.65;2.35;;;20.70;99.90;;;;;;5001943;28;20036;-80
2022/08/14 02:14:56;;;;;;;4.57;2.85;;;20.70;99.90;;;;;;4991873;28;20057;-80
2022/08/14 02:17:22;;;;;;;3.50;2.88;;;20.70;99.90;;;;;;5005360;28;20385;-80
2022/08/14 02:19:49;;;;;;;3.58;2.40;;;20.70;99.90;;;;;;5001292;28;20029;-79
2022/08/14 02:22:17;;;;;;;3.72;2.58;;;20.80;99.90;;;;;;5005156;28;20030;-79
2022/08/14 02:24:42;;;;;;;4.55;2.85;;;20.70;99.90;;;;;;5007123;28;20477;-79
2022/08/14 02:27:09;;;;;;;4.60;2.58;;;20.80;99.90;;;;;;4999436;28;20041;-79
2022/08/14 02:29:35;;;;;;;2.78;2.45;;;20.70;99.90;;;;;;5000176;28;20424;-80
2022/08/14 02:32:01;;;;;;;4.50;2.67;;;20.80;99.90;;;;;;5000789;28;20030;-80
2022/08/14 02:34:30;;;;;;;3.72;2.60;;;20.70;99.90;;;;;;5000199;28;20025;-79
2022/08/14 02:37:02;;;;;;;6.85;3.20;;;20.70;99.90;;;;;;5005667;28;20041;-79
2022/08/14 02:39:32;;;;;;;5.03;2.83;;;20.70;99.90;;;;;;5007318;28;20911;-79
2022/08/14 02:41:58;;;;;;;4.00;2.80;;;20.70;99.90;;;;;;5004092;28;20042;-79
2022/08/14 02:44:24;;;;;;;3.65;2.90;;;20.70;99.90;;;;;;5003769;28;20028;-79
2022/08/14 02:46:52;;;;;;;4.28;2.65;;;20.70;99.90;;;;;;4993563;28;20030;-79
2022/08/14 02:49:20;;;;;;;7.15;3.30;;;20.80;99.90;;;;;;5004716;28;20689;-79
2022/08/14 02:51:47;;;;;;;3.38;2.53;;;20.80;99.90;;;;;;4994239;28;20030;-79
2022/08/14 02:54:13;;;;;;;7.38;4.03;;;20.80;99.90;;;;;;5005107;28;20026;-79
2022/08/14 02:56:38;;;;;;;8.55;3.13;;;20.80;99.90;;;;;;5005707;28;20053;-79
2022/08/14 02:59:06;;;;;;;3.85;2.72;;;20.70;99.90;;;;;;5008475;28;20556;-79
2022/08/14 03:01:33;;;;;;;6.90;3.10;;;20.70;99.90;;;;;;4999378;28;20381;-79
2022/08/14 03:03:59;;;;;;;6.43;2.72;;;20.60;99.90;;;;;;5000879;28;20030;-80
2022/08/14 03:06:24;;;;;;;4.05;2.88;;;20.70;99.90;;;;;;5009604;28;20112;-79
2022/08/14 03:08:51;;;;;;;4.60;2.90;;;20.70;99.90;;;;;;4999638;28;20038;-81
2022/08/14 03:11:18;;;;;;;4.47;2.85;;;20.70;99.90;;;;;;5006829;28;20034;-81
2022/08/14 03:13:50;;;;;;;3.80;2.80;;;20.70;99.90;;;;;;5001576;28;20484;-81
2022/08/14 03:16:20;;;;;;;3.35;2.42;;;20.70;99.90;;;;;;5003305;28;20038;-80
2022/08/14 03:18:48;;;;;;;7.23;3.13;;;20.80;99.90;;;;;;4995577;28;20037;-80
2022/08/14 03:21:18;;;;;;;3.88;2.80;;;20.80;99.90;;;;;;5002859;28;20026;-80
2022/08/14 03:23:47;;;;;;;4.55;3.17;;;20.70;99.90;;;;;;4995177;28;20061;-80
2022/08/14 03:26:14;;;;;;;4.32;2.70;;;20.70;99.90;;;;;;5007234;28;20029;-79
2022/08/14 03:28:42;;;;;;;4.75;2.30;;;20.70;99.90;;;;;;4995316;28;20030;-79
2022/08/14 03:31:08;;;;;;;3.63;2.83;;;20.80;99.90;;;;;;4996215;28;20037;-79
2022/08/14 03:33:37;;;;;;;3.65;2.80;;;20.80;99.90;;;;;;5003848;28;20252;-81
2022/08/14 03:36:07;;;;;;;3.53;2.42;;;20.80;99.90;;;;;;4993158;28;20034;-80
2022/08/14 03:38:33;;;;;;;3.83;2.80;;;20.70;99.90;;;;;;5002398;28;20375;-79
2022/08/14 03:40:58;;;;;;;4.72;2.70;;;20.70;99.90;;;;;;4998512;28;20038;-80
2022/08/14 03:43:24;;;;;;;4.32;2.60;;;20.70;99.90;;;;;;5002816;28;20018;-80
2022/08/14 03:45:49;;;;;;;3.55;2.72;;;20.70;99.90;;;;;;5010115;28;20121;-83
2022/08/14 03:48:18;;;;;;;4.07;2.97;;;20.70;99.90;;;;;;4995632;28;20030;-82
2022/08/14 03:50:50;;;;;;;4.03;2.75;;;20.70;99.90;;;;;;5008962;28;20037;-77
2022/08/14 03:53:17;;;;;;;4.93;3.10;;;20.70;99.90;;;;;;5004733;28;20056;-79
2022/08/14 03:55:43;;;;;;;4.25;2.97;;;20.70;99.90;;;;;;5010580;28;20096;-79
2022/08/14 03:58:10;;;;;;;3.97;2.60;;;20.70;99.90;;;;;;5002577;28;20058;-80
2022/08/14 04:00:37;;;;;;;3.80;2.95;;;20.70;99.90;;;;;;5006055;28;20048;-80
2022/08/14 04:03:04;;;;;;;4.72;2.92;;;20.60;99.90;;;;;;5006135;28;20477;-81
2022/08/14 04:05:30;;;;;;;3.03;2.58;;;20.60;99.90;;;;;;5009958;28;20026;-80
2022/08/14 04:07:57;;;;;;;3.55;2.70;;;20.60;99.90;;;;;;5004179;28;20127;-80
2022/08/14 04:10:23;;;;;;;4.35;3.13;;;20.60;99.90;;;;;;5009611;28;20030;-80
2022/08/14 04:12:48;;;;;;;8.57;2.90;;;20.60;99.90;;;;;;5004424;28;20489;-80
2022/08/14 04:15:15;;;;;;;3.40;2.83;;;20.60;99.90;;;;;;5004368;28;20034;-80
2022/08/14 04:17:42;;;;;;;4.78;3.08;;;20.60;99.90;;;;;;5000352;28;20038;-80
2022/08/14 04:20:08;;;;;;;3.53;2.80;;;20.60;99.90;;;;;;4997800;28;20030;-79
2022/08/14 04:22:35;;;;;;;3.97;2.90;;;20.70;99.90;;;;;;4997700;28;20022;-79
2022/08/14 04:25:01;;;;;;;4.72;3.03;;;20.70;99.90;;;;;;5000163;28;20029;-79
2022/08/14 04:27:28;;;;;;;3.40;2.70;;;20.70;99.90;;;;;;4997125;28;20033;-80
2022/08/14 04:29:54;;;;;;;4.60;3.10;;;20.80;99.90;;;;;;5004295;28;20030;-79
2022/08/14 04:32:25;;;;;;;5.30;3.55;;;20.80;99.90;;;;;;5002579;28;20030;-80
2022/08/14 04:34:51;;;;;;;4.38;2.75;;;20.80;99.90;;;;;;4986090;28;20018;-79
2022/08/14 04:45:37;;;;;;;3.88;2.70;;;20.80;99.90;;;;;;5006966;28;20080;-79
2022/08/14 04:48:14;;;;;;;4.05;2.92;;;20.90;99.90;;;;;;4998810;28;20041;-79
2022/08/14 04:50:49;;;;;;;3.47;2.65;;;20.90;99.90;;;;;;5007984;28;20105;-79
2022/08/14 04:53:18;;;;;;;5.50;2.90;;;21.00;99.90;;;;;;5000576;28;20031;-80
2022/08/14 04:55:47;;;;;;;5.20;3.50;;;21.00;99.90;;;;;;4999360;28;20073;-80
2022/08/14 04:58:19;;;;;;;5.30;2.85;;;21.00;99.90;;;;;;4997926;28;20485;-79
2022/08/14 05:00:52;;;;;;;4.15;2.78;;;21.10;99.90;;;;;;5001857;28;20041;-80
2022/08/14 05:03:23;;;;;;;5.38;3.97;;;21.20;99.90;;;;;;5006834;28;20037;-80
2022/08/14 05:05:54;;;;;;;4.72;3.25;;;21.20;99.90;;;;;;5007589;28;20088;-80
2022/08/14 05:08:21;;;;;;;4.88;2.92;;;21.20;99.90;;;;;;4999563;28;20417;-80
2022/08/14 05:10:51;;;;;;;4.20;2.83;;;21.30;99.90;;;;;;5005574;28;20453;-79
2022/08/14 05:13:18;;;;;;;3.97;2.95;;;21.30;99.90;;;;;;5002440;28;20425;-80
2022/08/14 05:15:45;;;;;;;4.32;3.10;;;21.40;99.90;;;;;;5004977;28;20153;-80
2022/08/14 05:18:12;;;;;;;5.13;3.20;;;21.40;99.90;;;;;;5005547;28;20052;-80
2022/08/14 05:20:39;;;;;;;4.30;3.25;;;21.40;99.90;;;;;;5003491;28;20488;-79
2022/08/14 05:23:06;;;;;;;4.20;2.92;;;21.50;99.90;;;;;;5004409;28;20503;-79
2022/08/14 05:25:33;;;;;;;4.50;3.20;;;21.60;99.90;;;;;;5002523;28;20029;-79
2022/08/14 05:28:24;;;;;;;5.38;3.58;;;21.60;99.90;;;;;;5002789;28;20053;-78
2022/08/14 05:30:59;;;;;;;4.72;3.50;;;21.60;99.90;;;;;;5006690;28;20034;-79
2022/08/14 05:33:27;;;;;;;4.95;3.35;;;21.70;99.90;;;;;;5006996;28;20096;-79
2022/08/14 05:35:59;;;;;;;4.90;3.35;;;21.80;99.90;;;;;;5004953;28;20061;-81
2022/08/14 05:38:28;;;;;;;6.68;3.20;;;21.90;99.90;;;;;;5002004;28;20535;-80
2022/08/14 05:40:55;;;;;;;3.53;2.88;;;21.90;99.90;;;;;;5007256;28;20122;-78
2022/08/14 05:43:21;;;;;;;5.38;3.85;;;21.90;99.90;;;;;;5007808;28;20053;-78
2022/08/14 05:45:47;;;;;;;4.32;2.90;;;22.00;99.90;;;;;;5004772;28;20536;-80
2022/08/14 05:48:14;;;;;;;5.53;3.35;;;21.90;99.90;;;;;;5007372;28;20061;-78
2022/08/14 05:50:39;;;;;;;7.40;2.80;;;21.90;99.90;;;;;;5003118;28;20030;-78
2022/08/14 05:53:05;;;;;;;2.70;2.38;;;22.00;99.90;;;;;;5009765;28;20361;-78
2022/08/14 05:55:31;;;;;;;3.22;2.72;;;22.00;99.90;;;;;;5000307;28;20034;-78
2022/08/14 05:58:02;;;;;;;4.18;3.50;;;22.00;99.90;;;;;;5007862;28;20037;-78
2022/08/14 06:00:31;;;;;;;5.05;3.25;;;22.10;99.90;;;;;;5007870;28;20395;-78
2022/08/14 06:02:58;;;;;;;4.85;3.78;;;22.10;99.90;;;;;;5005712;28;20077;-78
2022/08/14 06:05:24;;;;;;;4.93;3.22;;;22.20;99.90;;;;;;5015978;28;20034;-79
2022/08/14 06:07:50;;;;;;;2.85;2.60;;;22.10;99.90;;;;;;5004317;28;20095;-78
2022/08/14 06:10:15;;;;;;;4.53;2.88;;;22.20;99.90;;;;;;5010796;28;20116;-80
2022/08/14 06:12:41;;;;;;;4.63;3.00;;;22.20;99.90;;;;;;5005580;28;20041;-78
2022/08/14 06:15:08;;;;;;;4.45;3.15;;;22.30;99.90;;;;;;5008410;28;20528;-79
2022/08/14 06:17:45;;;;;;;4.60;3.15;;;22.40;99.90;;;;;;5010630;28;20072;-80
2022/08/14 06:20:12;;;;;;;6.38;3.05;;;22.50;99.90;;;;;;5008737;28;20080;-79
2022/08/14 06:22:38;;;;;;;4.13;2.83;;;22.60;99.90;;;;;;4999573;28;20392;-80
2022/08/14 06:25:04;;;;;;;5.22;3.33;;;22.60;99.90;;;;;;5003838;28;20032;-80
2022/08/14 06:27:36;;;;;;;4.07;3.35;;;22.60;99.90;;;;;;5002952;28;20444;-80
2022/08/14 06:30:03;;;;;;;4.22;2.88;;;22.50;99.90;;;;;;5007776;28;20072;-81
2022/08/14 06:32:30;;;;;;;4.18;3.13;;;22.50;99.90;;;;;;5008376;28;20247;-79
2022/08/14 06:34:55;;;;;;;4.00;3.17;;;22.60;99.90;;;;;;5013201;28;20022;-79
2022/08/14 06:37:22;;;;;;;4.90;3.33;;;22.60;99.90;;;;;;5007641;28;20029;-78
2022/08/14 06:39:47;;;;;;;5.30;2.85;;;22.70;99.90;;;;;;5011480;28;20080;-79
2022/08/14 06:42:13;;;;;;;4.28;2.83;;;22.70;99.90;;;;;;5004250;28;20018;-79
2022/08/14 06:44:39;;;;;;;4.35;3.60;;;22.70;99.90;;;;;;5001781;28;20054;-79
2022/08/14 06:47:05;;;;;;;4.72;3.28;;;22.70;99.90;;;;;;5003760;28;20060;-80
2022/08/14 06:49:31;;;;;;;4.13;3.42;;;22.80;99.90;;;;;;5006111;28;20476;-79
2022/08/14 06:51:59;;;;;;;4.47;3.05;;;22.80;99.90;;;;;;5008292;28;20436;-80
2022/08/14 06:54:25;;;;;;;5.78;3.28;;;22.90;99.90;;;;;;5008621;28;20057;-79
2022/08/14 06:56:50;;;;;;;5.65;3.13;;;22.80;99.90;;;;;;5002980;28;20456;-86
2022/08/14 06:59:16;;;;;;;4.57;3.08;;;22.90;99.90;;;;;;5006006;28;20096;-83
2022/08/14 07:07:10;;;;;;;3.75;2.70;;;23.00;99.90;;;;;;5006077;28;20037;-91
2022/08/14 07:09:35;;;;;;;4.60;3.13;;;23.10;99.90;;;;;;4988191;28;20025;-90
2022/08/14 07:12:01;;;;;;;4.55;3.15;;;23.10;99.90;;;;;;5011447;28;20025;-92
2022/08/14 07:14:26;;;;;;;6.20;3.47;;;23.10;99.90;;;;;;5011337;28;20030;-88
2022/08/14 07:16:51;;;;;;;4.90;3.63;;;23.20;99.90;;;;;;5006283;28;20443;-85
2022/08/14 07:19:18;;;;;;;4.50;3.10;;;23.20;99.90;;;;;;5003236;28;20043;-85
2022/08/14 07:21:43;;;;;;;4.05;3.38;;;23.20;99.90;;;;;;4991270;28;20470;-85
2022/08/14 07:24:09;;;;;;;6.55;3.45;;;23.30;99.90;;;;;;4996934;28;20057;-85
2022/08/14 07:26:35;;;;;;;3.28;2.95;;;23.40;99.90;;;;;;5008157;28;20057;-85
2022/08/14 07:29:00;;;;;;;7.45;3.42;;;23.50;99.90;;;;;;5004657;28;20172;-85
2022/08/14 07:31:25;;;;;;;4.30;2.90;;;23.40;99.90;;;;;;4994755;28;20103;-85
2022/08/14 07:33:51;;;;;;;4.10;2.97;;;23.30;99.90;;;;;;5004286;28;20030;-85
2022/08/14 07:36:18;;;;;;;4.75;2.58;;;23.30;99.90;;;;;;5004739;28;20293;-85
2022/08/14 07:38:44;;;;;;;5.07;3.35;;;23.20;99.90;;;;;;4998380;28;20065;-84
2022/08/14 07:41:12;;;;;;;3.47;2.70;;;23.30;99.90;;;;;;4991300;28;20069;-84
2022/08/14 07:43:38;;;;;;;3.78;2.95;;;23.30;99.90;;;;;;5002599;28;20034;-86
2022/08/14 07:46:04;;;;;;;3.95;3.00;;;23.50;99.90;;;;;;4994296;28;20481;-84
2022/08/14 07:48:30;;;;;;;4.70;3.45;;;23.50;99.90;;;;;;5004644;28;20590;-85
2022/08/14 07:50:56;;;;;;;4.75;3.17;;;23.60;99.90;;;;;;5002888;28;20306;-84
2022/08/14 07:53:21;;;;;;;5.57;2.70;;;23.60;99.90;;;;;;5000198;28;20500;-85
2022/08/14 07:55:48;;;;;;;4.03;2.92;;;23.60;99.90;;;;;;4974113;28;20096;-86
2022/08/14 07:58:14;;;;;;;4.18;2.97;;;23.70;99.90;;;;;;5003115;28;20032;-79
2022/08/14 08:00:40;;;;;;;4.35;3.10;;;23.80;99.90;;;;;;5008128;28;20026;-83
2022/08/14 08:03:09;;;;;;;4.20;2.95;;;23.90;99.90;;;;;;5006998;28;20362;-81
2022/08/14 08:05:36;;;;;;;4.70;3.08;;;23.80;99.90;;;;;;4999768;28;20181;-77
2022/08/14 08:08:03;;;;;;;4.13;2.83;;;23.80;99.90;;;;;;5004583;28;20025;-76
2022/08/14 08:10:30;;;;;;;3.85;2.60;;;23.80;99.90;;;;;;4995492;28;20034;-75
2022/08/14 08:13:01;;;;;;;4.97;3.40;;;23.80;99.90;;;;;;4997265;28;20034;-77
2022/08/14 08:15:29;;;;;;;3.60;3.13;;;24.10;99.90;;;;;;4995487;28;20030;-78
2022/08/14 08:17:54;;;;;;;3.83;2.92;;;24.10;99.90;;;;;;4999378;28;20304;-77
2022/08/14 08:20:24;;;;;;;4.80;2.75;;;24.10;99.90;;;;;;4995247;28;20057;-76
2022/08/14 08:22:50;;;;;;;4.45;2.97;;;24.10;99.90;;;;;;4999169;28;20049;-77
2022/08/14 08:25:17;;;;;;;4.20;2.92;;;24.10;99.30;;;;;;5006703;28;20030;-76
2022/08/14 08:27:55;;;;;;;4.53;3.45;;;24.30;99.90;;;;;;5002899;28;20112;-76
2022/08/14 08:30:21;;;;;;;4.82;2.95;;;24.30;99.70;;;;;;5007383;28;20396;-77
2022/08/14 08:32:46;;;;;;;3.78;2.88;;;24.30;99.20;;;;;;5003492;28;20030;-77
2022/08/14 08:35:20;;;;;;;4.43;2.90;;;24.40;98.70;;;;;;5000753;28;20030;-80
2022/08/14 08:37:47;;;;;;;3.47;2.70;;;24.50;97.70;;;;;;5006608;28;20370;-77
2022/08/14 08:40:24;;;;;;;4.32;3.40;;;24.60;97.80;;;;;;5004221;28;20026;-80
2022/08/14 08:42:50;;;;;;;6.15;3.22;;;24.70;98.30;;;;;;5002340;28;20034;-81
2022/08/14 08:45:16;;;;;;;3.78;2.65;;;24.70;97.40;;;;;;5000745;28;20049;-79
2022/08/14 08:47:42;;;;;;;4.25;3.03;;;24.60;97.00;;;;;;4998996;28;20038;-79
2022/08/14 08:50:18;;;;;;;4.10;2.83;;;24.90;97.30;;;;;;5001544;28;20044;-78
2022/08/14 08:52:49;;;;;;;3.80;3.05;;;25.00;97.80;;;;;;5006932;28;20121;-81
2022/08/14 08:55:15;;;;;;;4.32;3.08;;;25.10;98.50;;;;;;4991915;28;20093;-80
2022/08/14 08:57:41;;;;;;;3.60;2.97;;;24.90;95.20;;;;;;5000313;28;20037;-78
2022/08/14 09:00:16;;;;;;;3.75;2.97;;;25.10;96.70;;;;;;5003664;28;20018;-79
2022/08/14 09:02:51;;;;;;;4.50;3.17;;;25.40;94.10;;;;;;5002390;28;20033;-79
2022/08/14 09:05:16;;;;;;;4.00;2.80;;;25.10;94.10;;;;;;5012660;28;20026;-77
2022/08/14 09:07:42;;;;;;;3.35;2.70;;;25.00;95.80;;;;;;4997248;28;20026;-77
2022/08/14 09:10:07;;;;;;;6.20;3.35;;;25.00;93.90;;;;;;5002653;28;20038;-74
2022/08/14 09:12:34;;;;;;;2.90;2.47;;;25.20;94.50;;;;;;4999535;28;20105;-75
2022/08/14 09:15:00;;;;;;;3.88;2.75;;;25.20;94.10;;;;;;4996613;28;20518;-76
2022/08/14 09:17:29;;;;;;;4.78;2.80;;;25.00;93.90;;;;;;5004278;28;20496;-76
2022/08/14 09:19:56;;;;;;;3.88;3.13;;;24.90;93.80;;;;;;4997360;28;20401;-76
2022/08/14 09:22:22;;;;;;;3.13;2.60;;;24.80;94.00;;;;;;5007451;28;20027;-76
2022/08/14 09:24:48;;;;;;;3.35;2.40;;;24.90;94.10;;;;;;5005141;28;20404;-77
2022/08/14 09:27:13;;;;;;;3.15;2.60;;;25.00;93.90;;;;;;5000488;28;20030;-76
2022/08/14 09:29:40;;;;;;;3.90;2.80;;;25.30;92.90;;;;;;4998536;28;20477;-75
2022/08/14 09:32:08;;;;;;;2.92;2.63;;;25.10;93.50;;;;;;4997700;28;20052;-75
2022/08/14 09:35:11;;;;;;;2.78;2.38;;;25.10;93.00;;;;;;5001236;28;20069;-75
2022/08/14 09:38:06;;;;;;;4.50;2.50;;;25.00;93.20;;;;;;4993271;28;20034;-75
2022/08/14 09:41:14;;;;;;;9.25;3.22;;;25.40;93.20;;;;;;5007651;28;20447;-80
2022/08/14 09:44:02;;;;;;;3.90;2.90;;;25.50;92.60;;;;;;4990530;28;20041;-76
2022/08/14 09:46:27;;;;;;;2.90;2.70;;;25.90;90.50;;;;;;5001229;28;20034;-76
2022/08/14 09:49:04;;;;;;;3.95;2.88;;;25.80;90.80;;;;;;5002831;28;20033;-75
2022/08/14 09:51:32;;;;;;;3.17;2.60;;;25.60;91.60;;;;;;4999130;28;20114;-79
2022/08/14 09:54:06;;;;;;;3.63;3.00;;;25.90;89.20;;;;;;4994155;28;20030;-75
2022/08/14 09:56:45;;;;;;;6.20;3.08;;;25.50;90.30;;;;;;4994733;28;20077;-75
2022/08/14 09:59:14;;;;;;;2.50;2.05;;;25.30;91.40;;;;;;4997899;28;20032;-75
2022/08/14 10:01:40;;;;;;;2.38;2.17;;;25.20;91.00;;;;;;5000631;28;20546;-75
2022/08/14 10:04:16;;;;;;;4.00;2.47;;;25.30;90.70;;;;;;5008894;28;20025;-75
2022/08/14 10:06:45;;;;;;;3.03;2.38;;;25.20;90.80;;;;;;5003123;28;20662;-75
2022/08/14 10:09:11;;;;;;;3.22;2.08;;;25.10;91.30;;;;;;4990939;28;20033;-75
2022/08/14 10:11:38;;;;;;;2.95;2.45;;;25.00;91.50;;;;;;5006982;28;20029;-75
2022/08/14 10:14:18;;;;;;;2.85;2.45;;;25.10;91.50;;;;;;5000551;28;20033;-75
2022/08/14 10:16:46;;;;;;;3.72;2.50;;;25.20;90.90;;;;;;5000373;28;20168;-75
2022/08/14 10:19:15;;;;;;;3.20;2.80;;;25.70;91.20;;;;;;5002368;28;20485;-75
2022/08/14 10:22:07;;;;;;;2.60;2.33;;;26.20;86.70;;;;;;5000788;28;20049;-78
2022/08/14 10:24:45;;;;;;;2.97;2.65;;;25.70;87.90;;;;;;4997342;28;20022;-80
2022/08/14 10:27:22;;;;;;;3.17;2.80;;;25.50;89.30;;;;;;4991246;28;20041;-80
2022/08/14 10:29:50;;;;;;;4.70;2.78;;;25.90;88.50;;;;;;4991496;28;20058;-80
2022/08/14 10:32:15;;;;;;;3.30;2.13;;;26.10;86.10;;;;;;5007329;28;20025;-78
2022/08/14 10:34:41;;;;;;;2.90;2.22;;;26.10;85.90;;;;;;5007984;28;20488;-79
2022/08/14 10:37:15;;;;;;;2.90;2.38;;;26.00;86.50;;;;;;5009460;28;20385;-79
2022/08/14 10:39:44;;;;;;;3.33;2.33;;;25.80;87.70;;;;;;4996632;28;20113;-80
2022/08/14 10:42:12;;;;;;;4.97;3.22;;;25.80;87.00;;;;;;4995244;28;20029;-79
2022/08/14 10:44:39;;;;;;;2.30;2.10;;;26.40;84.80;;;;;;5010299;28;20228;-80
2022/08/14 10:47:08;;;;;;;2.33;2.13;;;26.30;84.10;;;;;;5007734;28;20509;-78
2022/08/14 10:49:38;;;;;;;2.78;2.38;;;26.70;83.00;;;;;;5010749;28;20038;-80
2022/08/14 10:52:09;;;;;;;2.72;2.10;;;26.30;83.90;;;;;;5000792;28;20043;-79
2022/08/14 10:54:38;;;;;;;2.35;2.00;;;26.80;84.20;;;;;;5007734;28;20033;-80
2022/08/14 10:57:11;;;;;;;3.38;2.30;;;27.20;78.50;;;;;;5000641;28;20057;-78
2022/08/14 10:59:46;;;;;;;2.78;2.30;;;26.80;80.20;;;;;;4996693;28;20030;-79
2022/08/14 11:02:28;;;;;;;2.90;2.22;;;26.40;83.20;;;;;;5009039;28;20040;-79
2022/08/14 11:05:11;;;;;;;2.95;2.03;;;26.10;82.80;;;;;;5008635;28;20556;-80
2022/08/14 11:07:39;;;;;;;2.30;2.10;;;26.40;81.20;;;;;;5007968;28;20045;-77
2022/08/14 11:10:11;;;;;;;3.78;2.50;;;26.20;81.90;;;;;;5008409;28;20115;-80
2022/08/14 11:12:56;;;;;;;2.60;2.40;;;26.20;81.60;;;;;;5008161;28;20030;-79
2022/08/14 11:15:24;;;;;;;3.75;2.22;;;26.60;82.20;;;;;;5009487;28;20101;-79
2022/08/14 11:17:51;;;;;;;3.88;2.53;;;26.60;80.80;;;;;;5008470;28;20038;-79
2022/08/14 11:20:20;;;;;;;2.70;2.20;;;26.70;79.20;;;;;;5009833;28;20104;-79
2022/08/14 11:22:50;;;;;;;2.88;2.28;;;26.60;79.60;;;;;;5010155;28;20030;-79
2022/08/14 11:25:16;;;;;;;2.88;2.20;;;26.50;79.80;;;;;;5007620;28;20163;-80
2022/08/14 11:27:44;;;;;;;3.53;2.13;;;26.90;78.60;;;;;;5006572;28;20107;-80
2022/08/14 11:30:13;;;;;;;3.75;2.22;;;26.50;79.70;;;;;;4998308;28;20126;-79
2022/08/14 11:32:49;;;;;;;2.45;2.22;;;26.60;79.90;;;;;;4990602;28;20073;-80
2022/08/14 11:35:18;;;;;;;3.03;2.42;;;26.80;78.20;;;;;;5003904;28;20030;-81
2022/08/14 11:37:55;;;;;;;2.40;2.20;;;26.70;79.30;;;;;;5006251;28;20109;-81
2022/08/14 11:40:22;;;;;;;2.78;2.22;;;26.80;79.10;;;;;;5009580;28;20488;-81
2022/08/14 11:42:54;;;;;;;2.72;2.30;;;26.60;79.30;;;;;;5009039;28;20046;-79
2022/08/14 11:45:25;;;;;;;2.72;2.10;;;27.30;76.80;;;;;;5001872;28;20026;-79
2022/08/14 11:47:53;;;;;;;2.75;2.28;;;27.10;76.60;;;;;;5002023;28;20032;-80
2022/08/14 11:50:26;;;;;;;2.28;2.08;;;27.00;77.50;;;;;;5009274;28;20547;-79
2022/08/14 11:52:53;;;;;;;2.72;1.98;;;27.10;77.90;;;;;;4995684;28;20032;-79
2022/08/14 11:55:19;;;;;;;2.47;2.15;;;27.50;76.30;;;;;;4997095;28;20042;-80
2022/08/14 11:57:46;;;;;;;2.70;2.00;;;27.30;74.20;;;;;;5007970;28;20528;-80
2022/08/14 12:00:15;;;;;;;2.20;2.00;;;27.30;75.20;;;;;;5007041;28;20026;-82
2022/08/14 12:02:56;;;;;;;2.38;2.17;;;27.40;74.60;;;;;;5009691;28;20056;-79
2022/08/14 12:05:37;;;;;;;2.67;2.25;;;27.50;74.50;;;;;;5014608;28;20026;-80
2022/08/14 12:08:06;;;;;;;3.08;2.40;;;27.60;74.80;;;;;;5001627;28;20045;-81
2022/08/14 12:10:36;;;;;;;2.00;1.80;;;27.20;74.60;;;;;;5004630;28;20030;-80
2022/08/14 12:13:16;;;;;;;2.83;2.30;;;27.20;75.30;;;;;;5003125;28;20057;-79
2022/08/14 12:15:43;;;;;;;5.55;2.10;;;27.80;72.10;;;;;;4994965;28;20096;-80
2022/08/14 12:18:10;;;;;;;2.15;1.95;;;27.70;73.30;;;;;;5003249;28;20141;-79
2022/08/14 12:20:39;;;;;;;2.97;2.55;;;27.20;75.50;;;;;;5007476;28;20022;-81
2022/08/14 12:23:06;;;;;;;2.28;1.90;;;27.70;73.30;;;;;;5009107;28;20109;-81
2022/08/14 12:25:33;;;;;;;2.20;2.00;;;27.40;74.50;;;;;;5005556;28;20089;-81
2022/08/14 12:28:04;;;;;;;3.17;2.53;;;27.20;75.40;;;;;;4999317;28;20041;-80
2022/08/14 12:30:41;;;;;;;2.22;2.00;;;27.50;74.10;;;;;;5006257;28;20030;-82
2022/08/14 12:33:21;;;;;;;2.83;2.22;;;27.60;73.90;;;;;;5008595;28;20117;-81
2022/08/14 12:35:48;;;;;;;3.10;1.97;;;27.60;73.30;;;;;;5008722;28;20057;-81
2022/08/14 12:38:15;;;;;;;2.28;2.08;;;27.80;73.70;;;;;;5005329;28;20113;-81
2022/08/14 12:40:53;;;;;;;2.08;1.90;;;28.10;71.90;;;;;;5008113;28;20037;-81
2022/08/14 12:43:20;;;;;;;2.20;2.00;;;28.30;71.10;;;;;;5005274;28;20026;-79
2022/08/14 12:45:50;;;;;;;2.83;2.38;;;28.60;70.30;;;;;;4989176;28;20034;-78
2022/08/14 12:48:20;;;;;;;2.30;2.05;;;28.80;68.50;;;;;;5000204;28;20034;-81
2022/08/14 12:50:47;;;;;;;3.63;2.73;;;29.30;69.80;;;;;;5008475;28;20125;-82
2022/08/14 12:53:13;;;;;;;2.80;2.20;;;29.60;67.40;;;;;;5008557;28;20037;-84
2022/08/14 12:55:41;;;;;;;1.75;1.65;;;31.50;60.50;;;;;;5008389;28;20049;-82
2022/08/14 12:58:07;;;;;;;3.35;2.72;;;30.50;63.00;;;;;;5005817;28;20041;-82
2022/08/14 13:00:45;;;;;;;2.65;2.33;;;30.90;62.00;;;;;;5007433;28;20030;-81
2022/08/14 13:03:22;;;;;;;2.65;2.20;;;33.00;53.70;;;;;;4995066;28;20482;-81
2022/08/14 13:05:48;;;;;;;2.30;2.10;;;33.90;54.40;;;;;;5014995;28;20025;-80
2022/08/14 13:08:14;;;;;;;2.53;2.25;;;32.90;55.20;;;;;;4999729;28;20022;-81
2022/08/14 13:10:39;;;;;;;2.20;2.00;;;32.40;56.50;;;;;;5006292;28;20684;-81
2022/08/14 13:13:08;;;;;;;2.53;2.00;;;31.90;57.10;;;;;;5004790;28;20022;-81
2022/08/14 13:15:34;;;;;;;2.40;2.20;;;31.20;58.80;;;;;;4993935;28;20057;-81